createdAt,value
2019-05-09T00:02:38.337Z,9.22
2019-05-09T00:05:08.933Z,9.15
2019-05-09T00:07:39.282Z,9.24
2019-05-09T00:10:09.242Z,9.44
2019-05-09T00:12:39.071Z,9.22
2019-05-09T00:15:08.774Z,9.22
2019-05-09T00:17:43.824Z,9.19
2019-05-09T00:20:30.290Z,9.15
2019-05-09T00:23:03.283Z,9.15
2019-05-09T00:25:33.978Z,9.11
2019-05-09T00:28:05.843Z,9.15
2019-05-09T00:30:56.713Z,9.10
2019-05-09T00:33:29.055Z,9.10
2019-05-09T00:35:58.833Z,9.09
2019-05-09T00:38:43.433Z,9.06
2019-05-09T00:41:13.950Z,9.06
2019-05-09T00:43:48.626Z,8.96
2019-05-09T00:46:23.994Z,8.99
2019-05-09T00:49:18.856Z,8.90
2019-05-09T00:51:48.772Z,8.87
2019-05-09T00:54:20.700Z,8.87
2019-05-09T00:56:50.862Z,8.77
2019-05-09T00:59:20.592Z,8.72
2019-05-09T01:01:50.596Z,8.61
2019-05-09T01:04:20.407Z,8.69
2019-05-09T01:06:50.092Z,8.58
2019-05-09T01:09:20.698Z,8.49
2019-05-09T01:11:50.423Z,8.56
2019-05-09T01:14:20.133Z,8.56
2019-05-09T01:16:49.945Z,8.40
2019-05-09T01:19:19.750Z,8.37
2019-05-09T01:21:49.562Z,8.37
2019-05-09T01:24:19.158Z,8.32
2019-05-09T01:26:48.795Z,8.21
2019-05-09T01:29:19.112Z,8.21
2019-05-09T01:31:49.045Z,8.20
2019-05-09T01:34:23.964Z,8.20
2019-05-09T01:37:11.115Z,8.15
2019-05-09T01:39:40.967Z,8.10
2019-05-09T01:42:11.187Z,8.10
2019-05-09T01:44:40.876Z,7.98
2019-05-09T01:47:11.099Z,7.92
2019-05-09T01:49:43.132Z,7.79
2019-05-09T01:52:13.735Z,7.79
2019-05-09T01:54:45.237Z,7.77
2019-05-09T01:57:15.282Z,7.73
2019-05-09T01:59:44.984Z,7.73
2019-05-09T02:02:15.010Z,7.63
2019-05-09T02:04:44.871Z,7.63
2019-05-09T02:07:14.438Z,7.76
2019-05-09T02:09:45.095Z,7.73
2019-05-09T02:12:14.842Z,7.77
2019-05-09T02:14:54.354Z,7.77
2019-05-09T02:17:58.219Z,7.76
2019-05-09T02:20:17.418Z,7.76
2019-05-09T02:22:47.120Z,7.73
2019-05-09T02:25:16.838Z,7.77
2019-05-09T02:27:48.156Z,7.77
2019-05-09T02:30:18.376Z,7.82
2019-05-09T02:32:48.106Z,7.81
2019-05-09T02:35:17.748Z,7.71
2019-05-09T02:37:49.802Z,7.71
2019-05-09T02:40:19.247Z,7.71
2019-05-09T02:42:49.224Z,7.66
2019-05-09T02:45:19.563Z,7.66
2019-05-09T02:47:49.258Z,7.76
2019-05-09T02:50:19.705Z,7.78
2019-05-09T02:52:49.512Z,7.78
2019-05-09T02:55:19.299Z,7.73
2019-05-09T02:57:50.807Z,7.73
2019-05-09T03:00:39.861Z,7.74
2019-05-09T03:03:19.796Z,7.74
2019-05-09T03:05:49.487Z,7.85
2019-05-09T03:08:19.612Z,7.85
2019-05-09T03:10:49.495Z,7.70
2019-05-09T03:13:19.462Z,7.82
2019-05-09T03:15:51.021Z,7.82
2019-05-09T03:18:21.085Z,7.82
2019-05-09T03:21:00.564Z,7.82
2019-05-09T03:23:30.156Z,7.87
2019-05-09T03:26:00.220Z,7.85
2019-05-09T03:28:49.218Z,7.72
2019-05-09T03:31:20.027Z,7.72
2019-05-09T03:33:50.454Z,7.61
2019-05-09T03:36:21.302Z,7.56
2019-05-09T03:38:51.438Z,7.56
2019-05-09T03:41:21.200Z,7.57
2019-05-09T03:43:51.009Z,7.50
2019-05-09T03:46:38.404Z,7.50
2019-05-09T03:49:08.928Z,7.50
2019-05-09T03:51:39.182Z,7.52
2019-05-09T03:54:09.209Z,7.40
2019-05-09T03:56:42.941Z,7.40
2019-05-09T03:59:12.822Z,7.35
2019-05-09T04:01:42.514Z,7.42
2019-05-09T04:04:12.117Z,7.37
2019-05-09T04:06:42.225Z,7.32
2019-05-09T04:09:12.342Z,7.32
2019-05-09T04:11:42.146Z,7.36
2019-05-09T04:14:17.562Z,7.44
2019-05-09T04:16:48.256Z,7.48
2019-05-09T04:19:18.023Z,7.48
2019-05-09T04:21:48.637Z,7.48
2019-05-09T04:24:18.217Z,7.60
2019-05-09T04:26:53.378Z,7.60
2019-05-09T04:29:24.125Z,7.63
2019-05-09T04:31:54.351Z,7.69
2019-05-09T04:34:23.922Z,7.65
2019-05-09T04:36:57.442Z,7.68
2019-05-09T04:39:28.368Z,7.74
2019-05-09T04:42:03.530Z,7.85
2019-05-09T04:44:57.490Z,7.85
2019-05-09T04:47:27.652Z,7.92
2019-05-09T04:49:58.442Z,7.96
2019-05-09T04:52:30.418Z,8.12
2019-05-09T04:55:00.187Z,8.12
2019-05-09T04:57:31.288Z,7.98
2019-05-09T05:00:02.461Z,7.98
2019-05-09T05:02:50.112Z,8.01
2019-05-09T05:05:20.087Z,8.01
2019-05-09T05:07:50.253Z,8.00
2019-05-09T05:10:19.954Z,8.00
2019-05-09T05:12:50.332Z,8.25
2019-05-09T05:15:20.725Z,8.26
2019-05-09T05:17:51.000Z,8.27
2019-05-09T05:20:23.804Z,8.38
2019-05-09T05:22:59.489Z,8.38
2019-05-09T05:25:29.196Z,8.40
2019-05-09T05:27:58.867Z,8.40
2019-05-09T05:30:29.252Z,8.26
2019-05-09T05:33:10.389Z,8.44
2019-05-09T05:35:47.911Z,8.59
2019-05-09T05:38:17.734Z,8.59
2019-05-09T05:40:49.687Z,8.69
2019-05-09T05:43:18.900Z,8.81
2019-05-09T05:45:58.785Z,9.00
2019-05-09T05:48:29.967Z,9.00
2019-05-09T05:50:59.442Z,9.04
2019-05-09T05:53:29.170Z,8.94
2019-05-09T05:55:58.978Z,9.06
2019-05-09T05:58:29.081Z,9.06
2019-05-09T06:00:59.130Z,9.11
2019-05-09T06:03:29.016Z,9.18
2019-05-09T06:05:59.289Z,9.33
2019-05-09T06:08:29.005Z,9.35
2019-05-09T06:10:58.659Z,9.35
2019-05-09T06:13:28.373Z,9.36
2019-05-09T06:15:59.095Z,9.25
2019-05-09T06:18:29.029Z,9.35
2019-05-09T06:20:58.763Z,9.47
2019-05-09T06:23:28.545Z,9.58
2019-05-09T06:25:59.279Z,9.58
2019-05-09T06:28:37.647Z,9.37
2019-05-09T06:31:09.953Z,9.64
2019-05-09T06:33:46.321Z,9.56
2019-05-09T06:36:11.147Z,9.78
2019-05-09T06:38:41.007Z,9.78
2019-05-09T06:41:12.245Z,9.90
2019-05-09T06:43:44.250Z,9.74
2019-05-09T06:46:29.456Z,9.80
2019-05-09T06:49:23.333Z,9.97
2019-05-09T06:51:35.399Z,9.73
2019-05-09T06:54:05.493Z,9.73
2019-05-09T06:56:35.258Z,9.96
2019-05-09T06:59:07.387Z,9.86
2019-05-09T07:01:57.975Z,9.86
2019-05-09T07:04:58.222Z,10.03
2019-05-09T07:07:53.351Z,10.28
2019-05-09T07:10:23.711Z,10.32
2019-05-09T07:12:53.236Z,10.32
2019-05-09T07:15:23.191Z,10.54
2019-05-09T07:17:53.777Z,10.54
2019-05-09T07:20:23.570Z,10.48
2019-05-09T07:22:58.349Z,10.48
2019-05-09T07:25:47.838Z,10.52
2019-05-09T07:28:20.505Z,10.52
2019-05-09T07:31:21.148Z,10.63
2019-05-09T07:33:59.478Z,10.63
2019-05-09T07:36:30.406Z,10.75
2019-05-09T07:39:01.135Z,10.99
2019-05-09T07:41:33.764Z,11.07
2019-05-09T07:44:03.564Z,11.07
2019-05-09T07:46:34.871Z,10.87
2019-05-09T07:49:08.631Z,11.14
2019-05-09T07:51:38.523Z,11.33
2019-05-09T07:54:20.562Z,11.19
2019-05-09T07:56:42.197Z,11.19
2019-05-09T07:59:12.014Z,11.40
2019-05-09T08:01:45.422Z,11.50
2019-05-09T08:04:18.222Z,11.71
2019-05-09T08:06:48.767Z,11.71
2019-05-09T08:09:18.855Z,11.74
2019-05-09T08:11:50.150Z,11.55
2019-05-09T08:14:21.414Z,11.62
2019-05-09T08:16:54.214Z,11.62
2019-05-09T08:19:24.414Z,11.72
2019-05-09T08:21:54.251Z,12.20
2019-05-09T08:24:24.045Z,12.27
2019-05-09T08:26:54.085Z,12.04
2019-05-09T08:29:24.535Z,12.04
2019-05-09T08:31:58.054Z,12.13
2019-05-09T08:34:28.486Z,11.95
2019-05-09T08:36:58.809Z,11.83
2019-05-09T08:39:28.734Z,11.83
2019-05-09T08:41:59.462Z,12.18
2019-05-09T08:44:31.242Z,12.40
2019-05-09T08:47:01.902Z,12.31
2019-05-09T08:49:41.823Z,12.14
2019-05-09T08:52:16.610Z,12.22
2019-05-09T08:54:51.378Z,12.36
2019-05-09T08:57:23.855Z,12.36
2019-05-09T08:59:53.680Z,12.26
2019-05-09T09:02:23.983Z,12.34
2019-05-09T09:04:53.801Z,12.42
2019-05-09T09:07:24.385Z,12.31
2019-05-09T09:09:53.950Z,12.31
2019-05-09T09:12:31.328Z,12.53
2019-05-09T09:14:55.209Z,12.96
2019-05-09T09:17:25.087Z,12.96
2019-05-09T09:19:54.750Z,12.79
2019-05-09T09:22:24.425Z,12.97
2019-05-09T09:24:54.026Z,13.03
2019-05-09T09:27:24.023Z,13.43
2019-05-09T09:29:53.779Z,13.44
2019-05-09T09:32:23.242Z,13.44
2019-05-09T09:34:53.293Z,13.48
2019-05-09T09:37:23.429Z,13.19
2019-05-09T09:39:53.435Z,13.24
2019-05-09T09:42:23.923Z,13.24
2019-05-09T09:44:58.543Z,12.95
2019-05-09T09:47:28.803Z,13.32
2019-05-09T09:50:00.530Z,13.10
2019-05-09T09:52:34.151Z,13.10
2019-05-09T09:55:01.594Z,13.31
2019-05-09T09:57:33.356Z,13.41
2019-05-09T10:00:20.563Z,13.47
2019-05-09T10:02:50.233Z,13.47
2019-05-09T10:05:20.882Z,13.54
2019-05-09T10:07:50.698Z,13.82
2019-05-09T10:10:34.035Z,13.82
2019-05-09T10:13:04.308Z,13.99
2019-05-09T10:15:58.886Z,13.99
2019-05-09T10:18:57.849Z,13.81
2019-05-09T10:21:30.886Z,13.91
2019-05-09T10:24:00.898Z,14.28
2019-05-09T10:26:30.461Z,14.21
2019-05-09T10:28:59.937Z,14.21
2019-05-09T10:31:30.733Z,14.41
2019-05-09T10:34:00.758Z,14.41
2019-05-09T10:36:30.670Z,14.27
2019-05-09T10:39:01.035Z,14.20
2019-05-09T10:41:31.117Z,14.57
2019-05-09T10:44:25.300Z,14.76
2019-05-09T10:47:02.537Z,14.86
2019-05-09T10:49:32.995Z,14.50
2019-05-09T10:52:03.764Z,14.22
2019-05-09T10:54:33.689Z,13.97
2019-05-09T10:57:03.702Z,13.97
2019-05-09T10:59:37.700Z,14.31
2019-05-09T11:02:09.518Z,13.99
2019-05-09T11:04:42.936Z,13.96
2019-05-09T11:07:11.144Z,13.96
2019-05-09T11:09:40.777Z,13.82
2019-05-09T11:12:10.291Z,13.75
2019-05-09T11:14:40.177Z,13.79
2019-05-09T11:17:18.447Z,13.79
2019-05-09T11:19:48.048Z,14.48
2019-05-09T11:22:18.440Z,14.48
2019-05-09T11:24:51.079Z,14.54
2019-05-09T11:27:29.086Z,14.81
2019-05-09T11:29:58.155Z,14.81
2019-05-09T11:32:27.967Z,14.99
2019-05-09T11:34:58.183Z,15.38
2019-05-09T11:37:29.204Z,15.38
2019-05-09T11:40:00.668Z,15.06
2019-05-09T11:42:33.414Z,15.06
2019-05-09T11:45:03.227Z,15.22
2019-05-09T11:47:39.708Z,15.50
2019-05-09T11:50:04.782Z,15.21
2019-05-09T11:52:34.427Z,15.07
2019-05-09T11:55:07.819Z,15.07
2019-05-09T11:57:38.453Z,14.70
2019-05-09T12:00:08.278Z,14.70
2019-05-09T12:02:38.651Z,14.50
2019-05-09T12:05:08.959Z,14.76
2019-05-09T12:07:38.930Z,14.56
2019-05-09T12:10:08.749Z,14.56
2019-05-09T12:12:39.151Z,14.09
2019-05-09T12:15:10.218Z,14.55
2019-05-09T12:17:56.548Z,14.55
2019-05-09T12:20:18.050Z,14.78
2019-05-09T12:22:49.688Z,14.70
2019-05-09T12:25:19.257Z,14.70
2019-05-09T12:27:48.907Z,15.26
2019-05-09T12:30:19.059Z,15.28
2019-05-09T12:32:49.136Z,15.18
2019-05-09T12:35:19.339Z,15.18
2019-05-09T12:37:49.110Z,15.49
2019-05-09T12:40:20.060Z,15.33
2019-05-09T12:42:50.540Z,15.33
2019-05-09T12:45:22.155Z,15.74
2019-05-09T12:48:06.095Z,15.26
2019-05-09T12:50:23.344Z,15.26
2019-05-09T12:52:54.399Z,15.36
2019-05-09T12:55:23.926Z,15.22
2019-05-09T12:57:53.893Z,15.16
2019-05-09T13:00:23.888Z,15.16
2019-05-09T13:02:53.635Z,15.28
2019-05-09T13:05:27.353Z,15.46
2019-05-09T13:07:57.821Z,15.53
2019-05-09T13:10:30.914Z,15.53
2019-05-09T13:13:00.752Z,15.48
2019-05-09T13:15:41.077Z,15.48
2019-05-09T13:18:21.844Z,15.41
2019-05-09T13:20:42.798Z,15.50
2019-05-09T13:23:12.776Z,15.50
2019-05-09T13:25:43.558Z,15.80
2019-05-09T13:28:13.301Z,15.80
2019-05-09T13:30:43.132Z,15.87
2019-05-09T13:33:13.079Z,15.70
2019-05-09T13:35:42.618Z,15.30
2019-05-09T13:38:12.083Z,15.21
2019-05-09T13:40:41.747Z,15.22
2019-05-09T13:43:11.293Z,15.17
2019-05-09T13:45:41.127Z,14.80
2019-05-09T13:48:27.046Z,14.88
2019-05-09T13:50:41.703Z,14.83
2019-05-09T13:53:11.500Z,15.08
2019-05-09T13:55:41.643Z,15.08
2019-05-09T13:58:13.379Z,15.48
2019-05-09T14:00:55.781Z,15.70
2019-05-09T14:03:15.049Z,15.70
2019-05-09T14:05:47.950Z,16.00
2019-05-09T14:08:18.196Z,16.00
2019-05-09T14:10:48.676Z,16.25
2019-05-09T14:13:19.206Z,16.43
2019-05-09T14:15:49.703Z,16.43
2019-05-09T14:18:19.785Z,16.44
2019-05-09T14:20:50.099Z,16.28
2019-05-09T14:23:19.664Z,16.28
2019-05-09T14:25:52.276Z,16.37
2019-05-09T14:28:21.693Z,16.23
2019-05-09T14:30:51.972Z,16.14
2019-05-09T14:33:21.481Z,16.27
2019-05-09T14:35:51.109Z,16.33
2019-05-09T14:38:20.641Z,16.14
2019-05-09T14:40:53.201Z,16.14
2019-05-09T14:43:23.034Z,15.96
2019-05-09T14:45:52.603Z,15.78
2019-05-09T14:48:25.320Z,16.03
2019-05-09T14:50:55.353Z,16.03
2019-05-09T14:53:24.986Z,15.91
2019-05-09T14:55:55.174Z,15.88
2019-05-09T14:58:25.126Z,15.70
2019-05-09T15:00:55.030Z,15.55
2019-05-09T15:03:24.706Z,15.55
2019-05-09T15:05:57.364Z,15.55
2019-05-09T15:08:27.984Z,15.80
2019-05-09T15:10:58.370Z,15.91
2019-05-09T15:13:28.716Z,15.59
2019-05-09T15:16:01.129Z,15.60
2019-05-09T15:18:32.103Z,15.60
2019-05-09T15:21:01.914Z,15.66
2019-05-09T15:23:33.564Z,15.66
2019-05-09T15:26:03.662Z,15.45
2019-05-09T15:28:33.500Z,15.45
2019-05-09T15:31:08.709Z,15.38
2019-05-09T15:33:37.690Z,15.34
2019-05-09T15:36:09.183Z,15.16
2019-05-09T15:38:43.119Z,15.38
2019-05-09T15:41:12.313Z,15.47
2019-05-09T15:43:49.529Z,15.47
2019-05-09T15:46:27.957Z,15.57
2019-05-09T15:48:58.279Z,15.47
2019-05-09T15:51:28.214Z,15.47
2019-05-09T15:53:58.250Z,15.51
2019-05-09T15:56:28.847Z,15.51
2019-05-09T15:58:58.689Z,15.60
2019-05-09T16:01:28.914Z,15.60
2019-05-09T16:03:58.631Z,15.79
2019-05-09T16:06:32.896Z,16.24
2019-05-09T16:09:00.670Z,16.24
2019-05-09T16:11:30.250Z,16.59
2019-05-09T16:14:03.015Z,16.92
2019-05-09T16:16:31.205Z,16.95
2019-05-09T16:19:01.030Z,17.42
2019-05-09T16:21:30.823Z,17.42
2019-05-09T16:24:00.415Z,17.46
2019-05-09T16:26:30.414Z,16.98
2019-05-09T16:28:59.977Z,16.98
2019-05-09T16:31:30.563Z,16.54
2019-05-09T16:34:09.163Z,16.48
2019-05-09T16:36:42.016Z,16.48
2019-05-09T16:39:15.069Z,16.43
2019-05-09T16:41:45.142Z,16.23
2019-05-09T16:44:15.164Z,16.09
2019-05-09T16:46:45.188Z,16.09
2019-05-09T16:49:17.520Z,16.11
2019-05-09T16:51:48.529Z,16.15
2019-05-09T16:54:18.106Z,15.88
2019-05-09T16:56:48.404Z,15.70
2019-05-09T16:59:18.500Z,15.74
2019-05-09T17:01:50.277Z,15.74
2019-05-09T17:04:19.976Z,15.29
2019-05-09T17:06:51.238Z,15.40
2019-05-09T17:09:24.140Z,15.11
2019-05-09T17:11:54.131Z,15.18
2019-05-09T17:14:23.647Z,14.93
2019-05-09T17:16:53.698Z,14.93
2019-05-09T17:19:25.163Z,14.84
2019-05-09T17:22:14.670Z,14.84
2019-05-09T17:24:48.212Z,14.68
2019-05-09T17:27:18.816Z,14.68
2019-05-09T17:29:48.668Z,14.73
2019-05-09T17:32:19.010Z,14.50
2019-05-09T17:34:49.334Z,14.62
2019-05-09T17:37:18.970Z,14.69
2019-05-09T17:39:54.486Z,14.55
2019-05-09T17:42:27.715Z,14.55
2019-05-09T17:45:00.312Z,14.55
2019-05-09T17:47:30.325Z,14.33
2019-05-09T17:50:07.694Z,14.35
2019-05-09T17:52:37.490Z,14.33
2019-05-09T17:55:07.932Z,14.33
2019-05-09T17:57:38.811Z,14.20
2019-05-09T18:00:12.870Z,14.20
2019-05-09T18:02:42.739Z,14.30
2019-05-09T18:05:12.421Z,14.30
2019-05-09T18:07:42.550Z,14.18
2019-05-09T18:10:12.391Z,14.18
2019-05-09T18:12:44.368Z,14.30
2019-05-09T18:15:15.419Z,14.16
2019-05-09T18:17:45.194Z,14.16
2019-05-09T18:20:17.435Z,14.14
2019-05-09T18:22:47.954Z,14.14
2019-05-09T18:25:18.885Z,14.22
2019-05-09T18:27:49.247Z,14.08
2019-05-09T18:30:18.895Z,14.11
2019-05-09T18:33:10.604Z,14.11
2019-05-09T18:35:40.790Z,14.00
2019-05-09T18:38:11.658Z,14.05
2019-05-09T18:40:41.488Z,13.93
2019-05-09T18:43:12.088Z,13.95
2019-05-09T18:45:44.136Z,13.81
2019-05-09T18:48:14.206Z,13.77
2019-05-09T18:50:44.059Z,13.77
2019-05-09T18:53:14.400Z,13.58
2019-05-09T18:55:44.492Z,13.57
2019-05-09T18:58:17.205Z,13.42
2019-05-09T19:00:47.094Z,13.47
2019-05-09T19:03:18.158Z,13.38
2019-05-09T19:05:47.920Z,13.38
2019-05-09T19:08:17.918Z,13.18
2019-05-09T19:13:27.350Z,13.74
2019-05-09T19:16:33.898Z,13.79
2019-05-09T19:19:16.838Z,13.79
2019-05-09T19:21:50.106Z,12.72
2019-05-09T19:24:19.739Z,12.84
2019-05-09T19:26:50.361Z,12.84
2019-05-09T19:29:22.319Z,12.47
2019-05-09T19:31:53.466Z,12.28
2019-05-09T19:34:28.321Z,12.29
2019-05-09T19:36:57.995Z,12.29
2019-05-09T19:39:34.778Z,12.17
2019-05-09T19:42:04.914Z,11.84
2019-05-09T19:44:34.938Z,11.84
2019-05-09T19:47:05.344Z,12.04
2019-05-09T19:49:35.038Z,11.49
2019-05-09T19:52:05.323Z,11.62
2019-05-09T19:54:35.419Z,11.62
2019-05-09T19:57:05.413Z,11.74
2019-05-09T19:59:38.704Z,11.74
2019-05-09T20:02:21.145Z,11.74
2019-05-09T20:04:55.357Z,11.42
2019-05-09T20:07:24.905Z,11.42
2019-05-09T20:10:04.066Z,11.49
2019-05-09T20:12:48.462Z,11.39
2019-05-09T20:15:19.653Z,11.44
2019-05-09T20:17:50.409Z,11.43
2019-05-09T20:20:24.144Z,11.46
2019-05-09T20:22:53.316Z,11.42
2019-05-09T20:25:23.822Z,11.29
2019-05-09T20:27:53.898Z,11.35
2019-05-09T20:30:27.031Z,11.35
2019-05-09T20:32:56.896Z,11.29
2019-05-09T20:35:26.839Z,11.27
2019-05-09T20:37:57.168Z,11.27
2019-05-09T20:40:28.613Z,11.09
2019-05-09T20:42:59.171Z,11.03
2019-05-09T20:45:29.311Z,11.06
2019-05-09T20:47:59.584Z,11.08
2019-05-09T20:50:35.862Z,11.08
2019-05-09T20:53:09.692Z,11.06
2019-05-09T20:55:38.184Z,11.10
2019-05-09T20:58:08.154Z,11.17
2019-05-09T21:00:38.241Z,11.17
2019-05-09T21:03:08.299Z,11.14
2019-05-09T21:05:41.075Z,11.15
2019-05-09T21:08:11.098Z,11.15
2019-05-09T21:10:41.761Z,11.06
2019-05-09T21:13:11.938Z,10.98
2019-05-09T21:15:41.819Z,10.98
2019-05-09T21:18:12.652Z,10.93
2019-05-09T21:20:43.299Z,11.09
2019-05-09T21:23:24.238Z,11.09
2019-05-09T21:25:47.196Z,11.04
2019-05-09T21:28:17.242Z,10.95
2019-05-09T21:30:49.303Z,10.95
2019-05-09T21:33:19.219Z,10.97
2019-05-09T21:35:48.944Z,11.02
2019-05-09T21:38:18.788Z,11.01
2019-05-09T21:40:48.557Z,11.01
2019-05-09T21:43:19.224Z,11.05
2019-05-09T21:45:49.142Z,10.97
2019-05-09T21:48:19.116Z,11.01
2019-05-09T21:50:51.051Z,10.96
2019-05-09T21:53:20.999Z,11.06
2019-05-09T21:55:50.983Z,11.01
2019-05-09T21:58:24.145Z,11.01
2019-05-09T22:00:55.214Z,11.00
2019-05-09T22:03:25.371Z,11.04
2019-05-09T22:05:55.764Z,11.04
2019-05-09T22:08:25.748Z,11.02
2019-05-09T22:10:55.537Z,11.02
2019-05-09T22:13:25.422Z,11.01
2019-05-09T22:15:55.179Z,11.01
2019-05-09T22:18:26.572Z,11.09
2019-05-09T22:20:56.301Z,10.93
2019-05-09T22:23:28.067Z,10.93
2019-05-09T22:25:57.738Z,10.97
2019-05-09T22:28:27.727Z,10.88
2019-05-09T22:30:57.330Z,10.88
2019-05-09T22:33:27.669Z,10.87
2019-05-09T22:35:57.494Z,10.88
2019-05-09T22:38:27.738Z,10.90
2019-05-09T22:40:57.404Z,10.90
2019-05-09T22:43:27.434Z,10.95
2019-05-09T22:45:57.465Z,10.95
2019-05-09T22:48:27.506Z,11.02
2019-05-09T22:50:57.329Z,11.02
2019-05-09T22:53:36.832Z,11.04
2019-05-09T22:56:07.538Z,11.04
2019-05-09T22:58:39.044Z,10.95
2019-05-09T23:01:09.910Z,11.00
2019-05-09T23:03:40.733Z,10.94
2019-05-09T23:06:10.691Z,10.93
2019-05-09T23:08:40.990Z,10.81
2019-05-09T23:11:10.742Z,10.81
2019-05-09T23:13:52.663Z,10.84
2019-05-09T23:16:24.136Z,10.92
2019-05-09T23:18:54.197Z,10.92
2019-05-09T23:21:26.186Z,11.05
2019-05-09T23:24:07.494Z,10.94
2019-05-09T23:26:37.157Z,11.02
2019-05-09T23:29:13.129Z,11.02
2019-05-09T23:32:07.323Z,10.88
2019-05-09T23:34:37.113Z,10.92
2019-05-09T23:37:07.031Z,10.92
2019-05-09T23:39:41.128Z,10.72
2019-05-09T23:42:10.833Z,10.72
2019-05-09T23:44:40.617Z,10.82
2019-05-09T23:47:10.766Z,10.84
2019-05-09T23:49:40.645Z,10.75
2019-05-09T23:52:10.251Z,10.93
2019-05-09T23:54:57.812Z,10.70
2019-05-09T23:57:45.962Z,10.68
